createdAt,value
2022-08-17T00:00:43.466Z,22.56
2022-08-17T00:03:18.953Z,22.56
2022-08-17T00:05:52.205Z,22.58
2022-08-17T00:08:23.427Z,22.63
2022-08-17T00:10:54.238Z,22.59
2022-08-17T00:13:27.795Z,22.57
2022-08-17T00:15:59.779Z,22.57
2022-08-17T00:19:06.629Z,22.49
2022-08-17T00:21:25.279Z,22.53
2022-08-17T00:23:55.098Z,22.39
2022-08-17T00:26:44.544Z,22.39
2022-08-17T00:29:17.875Z,22.44
2022-08-17T00:31:48.592Z,22.38
2022-08-17T00:34:18.997Z,22.28
2022-08-17T00:36:47.359Z,22.36
2022-08-17T00:39:15.783Z,22.24
2022-08-17T00:41:44.653Z,22.19
2022-08-17T00:44:13.292Z,22.18
2022-08-17T00:46:44.225Z,22.17
2022-08-17T00:49:15.560Z,22.08
2022-08-17T00:51:51.429Z,22.08
2022-08-17T00:54:25.641Z,22.06
2022-08-17T00:57:01.559Z,22.03
2022-08-17T00:59:35.692Z,22.07
2022-08-17T01:02:05.461Z,22.16
2022-08-17T01:04:34.693Z,22.19
2022-08-17T01:07:06.753Z,22.16
2022-08-17T01:09:35.665Z,22.18
2022-08-17T01:12:06.628Z,22.16
2022-08-17T01:14:37.835Z,22.22
2022-08-17T01:17:07.981Z,22.15
2022-08-17T01:19:40.264Z,22.14
2022-08-17T01:22:22.224Z,22.09
2022-08-17T01:24:59.126Z,22.09
2022-08-17T01:27:28.193Z,22.00
2022-08-17T01:30:02.841Z,22.03
2022-08-17T01:32:31.876Z,22.02
2022-08-17T01:35:01.833Z,21.99
2022-08-17T01:37:35.543Z,22.01
2022-08-17T01:40:11.037Z,21.93
2022-08-17T01:42:46.711Z,22.24
2022-08-17T01:45:19.619Z,22.35
2022-08-17T01:47:47.962Z,22.40
2022-08-17T01:50:20.357Z,22.53
2022-08-17T01:52:57.434Z,22.60
2022-08-17T01:55:32.325Z,22.64
2022-08-17T01:58:02.216Z,22.69
2022-08-17T02:00:54.458Z,22.69
2022-08-17T02:03:20.044Z,22.64
2022-08-17T02:05:49.390Z,22.67
2022-08-17T02:08:20.655Z,22.58
2022-08-17T02:11:11.582Z,22.52
2022-08-17T02:13:40.732Z,22.53
2022-08-17T02:16:09.606Z,22.48
2022-08-17T02:18:38.365Z,22.40
2022-08-17T02:21:08.112Z,22.36
2022-08-17T02:23:43.538Z,22.37
2022-08-17T02:26:25.997Z,22.27
2022-08-17T02:28:55.129Z,22.28
2022-08-17T02:31:23.627Z,22.27
2022-08-17T02:34:00.473Z,22.14
2022-08-17T02:36:34.462Z,21.95
2022-08-17T02:39:06.409Z,22.03
2022-08-17T02:41:34.941Z,22.09
2022-08-17T02:44:03.635Z,22.00
2022-08-17T02:46:32.346Z,21.82
2022-08-17T02:49:01.139Z,21.84
2022-08-17T02:51:29.700Z,21.83
2022-08-17T02:54:38.804Z,21.77
2022-08-17T02:56:48.072Z,21.78
2022-08-17T02:59:16.463Z,21.70
2022-08-17T03:01:44.951Z,21.73
2022-08-17T03:04:13.594Z,21.70
2022-08-17T03:06:42.021Z,21.78
2022-08-17T03:09:10.499Z,21.86
2022-08-17T03:11:38.903Z,21.91
2022-08-17T03:14:08.759Z,21.85
2022-08-17T03:16:37.214Z,21.90
2022-08-17T03:19:07.759Z,21.91
2022-08-17T03:21:36.285Z,21.82
2022-08-17T03:24:08.970Z,21.84
2022-08-17T03:26:37.742Z,21.79
2022-08-17T03:29:06.198Z,21.77
2022-08-17T03:31:37.227Z,21.73
2022-08-17T03:34:06.078Z,21.79
2022-08-17T03:36:36.069Z,21.64
2022-08-17T03:39:05.394Z,21.52
2022-08-17T03:41:33.938Z,21.44
2022-08-17T03:44:02.624Z,21.54
2022-08-17T03:46:48.553Z,21.40
2022-08-17T03:49:35.696Z,21.26
2022-08-17T03:52:22.056Z,21.50
2022-08-17T03:55:10.286Z,21.44
2022-08-17T03:57:39.029Z,21.45
2022-08-17T04:00:09.338Z,21.49
2022-08-17T04:02:41.819Z,21.61
2022-08-17T04:05:11.681Z,21.50
2022-08-17T04:07:40.062Z,21.49
2022-08-17T04:10:09.673Z,21.43
2022-08-17T04:12:48.805Z,21.33
2022-08-17T04:15:18.637Z,21.31
2022-08-17T04:17:47.014Z,21.35
2022-08-17T04:20:19.061Z,21.31
2022-08-17T04:22:59.402Z,21.29
2022-08-17T04:25:28.414Z,21.33
2022-08-17T04:27:56.969Z,21.33
2022-08-17T04:30:25.967Z,21.29
2022-08-17T04:33:04.320Z,21.32
2022-08-17T04:35:41.166Z,21.23
2022-08-17T04:38:13.091Z,21.05
2022-08-17T04:40:59.517Z,21.04
2022-08-17T04:43:30.034Z,21.09
2022-08-17T04:46:02.869Z,21.07
2022-08-17T04:48:36.207Z,20.98
2022-08-17T04:51:11.781Z,20.87
2022-08-17T04:53:42.240Z,20.91
2022-08-17T04:56:17.067Z,20.80
2022-08-17T04:58:50.241Z,20.84
2022-08-17T05:01:23.624Z,20.84
2022-08-17T05:03:54.168Z,20.77
2022-08-17T05:06:24.934Z,20.82
2022-08-17T05:08:54.013Z,20.81
2022-08-17T05:11:23.500Z,20.76
2022-08-17T05:13:52.031Z,20.83
2022-08-17T05:16:21.783Z,20.89
2022-08-17T05:18:50.455Z,20.90
2022-08-17T05:21:20.130Z,20.95
2022-08-17T05:23:53.252Z,20.88
2022-08-17T05:26:26.516Z,20.88
2022-08-17T05:29:02.579Z,20.94
2022-08-17T05:31:32.405Z,21.04
2022-08-17T05:34:00.802Z,21.24
2022-08-17T05:36:41.862Z,21.60
2022-08-17T05:39:16.108Z,21.88
2022-08-17T05:41:47.846Z,22.01
2022-08-17T05:44:16.879Z,22.13
2022-08-17T05:46:50.693Z,22.04
2022-08-17T05:49:24.679Z,21.93
2022-08-17T05:52:18.851Z,21.90
2022-08-17T05:55:11.456Z,21.98
2022-08-17T05:57:55.905Z,21.92
2022-08-17T06:00:30.690Z,21.95
2022-08-17T06:03:23.301Z,22.02
2022-08-17T06:06:02.811Z,22.03
2022-08-17T06:08:41.190Z,21.97
2022-08-17T06:11:24.079Z,22.02
2022-08-17T06:14:14.937Z,21.95
2022-08-17T06:16:47.355Z,22.12
2022-08-17T06:19:20.508Z,22.14
2022-08-17T06:21:52.670Z,22.19
2022-08-17T06:24:29.324Z,22.26
2022-08-17T06:27:03.783Z,22.25
2022-08-17T06:29:44.020Z,22.18
2022-08-17T06:32:14.410Z,22.03
2022-08-17T06:34:44.718Z,21.97
2022-08-17T06:37:48.961Z,22.00
2022-08-17T06:40:39.062Z,22.15
2022-08-17T06:43:48.025Z,22.18
2022-08-17T06:46:25.441Z,22.19
2022-08-17T06:49:10.914Z,22.10
2022-08-17T06:51:43.312Z,22.11
2022-08-17T06:54:20.551Z,22.18
2022-08-17T06:56:55.386Z,22.40
2022-08-17T06:59:53.260Z,22.58
2022-08-17T07:02:51.218Z,22.68
2022-08-17T07:05:26.885Z,22.59
2022-08-17T07:08:03.040Z,22.68
2022-08-17T07:10:40.644Z,22.79
2022-08-17T07:13:32.617Z,22.61
2022-08-17T07:16:15.427Z,22.48
2022-08-17T07:18:44.827Z,22.45
2022-08-17T07:21:29.716Z,22.39
2022-08-17T07:24:29.852Z,22.38
2022-08-17T07:27:15.745Z,22.44
2022-08-17T07:29:51.314Z,22.54
2022-08-17T07:32:26.734Z,22.54
2022-08-17T07:35:15.609Z,22.53
2022-08-17T07:37:53.109Z,22.66
2022-08-17T07:40:34.964Z,22.73
2022-08-17T07:43:18.790Z,22.79
2022-08-17T07:46:31.959Z,23.07
2022-08-17T07:49:23.347Z,23.23
2022-08-17T07:52:13.404Z,23.21
2022-08-17T07:54:50.914Z,23.28
2022-08-17T07:57:34.011Z,23.45
2022-08-17T08:00:19.576Z,23.55
2022-08-17T08:03:13.264Z,23.41
2022-08-17T08:05:54.902Z,23.39
2022-08-17T08:08:30.239Z,23.21
2022-08-17T08:11:08.242Z,23.22
2022-08-17T08:13:42.646Z,23.16
2022-08-17T08:16:24.766Z,23.22
2022-08-17T08:18:57.948Z,23.21
2022-08-17T08:21:41.824Z,23.16
2022-08-17T08:24:48.936Z,23.14
2022-08-17T08:27:35.676Z,23.07
2022-08-17T08:30:09.641Z,23.12
2022-08-17T08:32:57.849Z,23.25
2022-08-17T08:35:33.825Z,23.40
2022-08-17T08:38:16.800Z,23.54
2022-08-17T08:41:01.454Z,23.57
2022-08-17T08:43:42.646Z,23.65
2022-08-17T08:46:20.879Z,23.71
2022-08-17T08:49:39.091Z,23.75
2022-08-17T08:52:38.417Z,23.68
2022-08-17T08:55:19.000Z,23.75
2022-08-17T08:57:56.356Z,23.69
2022-08-17T09:00:27.358Z,23.73
2022-08-17T09:03:42.577Z,23.73
2022-08-17T09:06:39.312Z,23.75
2022-08-17T09:09:25.412Z,23.83
2022-08-17T09:12:05.648Z,23.83
2022-08-17T09:14:46.638Z,23.84
2022-08-17T09:17:19.239Z,23.79
2022-08-17T09:19:51.845Z,23.82
2022-08-17T09:22:31.764Z,23.82
2022-08-17T09:25:08.731Z,23.77
2022-08-17T09:27:54.639Z,23.75
2022-08-17T09:30:24.973Z,23.87
2022-08-17T09:33:00.610Z,23.81
2022-08-17T09:35:36.936Z,24.01
2022-08-17T09:38:21.345Z,24.20
2022-08-17T09:40:54.631Z,24.25
2022-08-17T09:43:34.818Z,24.36
2022-08-17T09:46:11.223Z,24.36
2022-08-17T09:48:46.247Z,24.25
2022-08-17T09:51:23.057Z,24.21
2022-08-17T09:53:52.315Z,24.28
2022-08-17T09:56:42.320Z,24.51
2022-08-17T09:59:38.436Z,24.57
2022-08-17T10:02:28.973Z,24.69
2022-08-17T10:05:03.891Z,24.74
2022-08-17T10:07:40.997Z,24.86
2022-08-17T10:10:17.485Z,24.96
2022-08-17T10:12:55.146Z,25.05
2022-08-17T10:15:42.490Z,25.42
2022-08-17T10:18:34.341Z,25.74
2022-08-17T10:21:25.175Z,26.00
2022-08-17T10:24:21.746Z,26.05
2022-08-17T10:26:56.503Z,25.83
2022-08-17T10:29:46.156Z,26.10
2022-08-17T10:32:32.355Z,26.30
2022-08-17T10:35:34.563Z,26.34
2022-08-17T10:38:42.800Z,26.22
2022-08-17T10:41:26.954Z,26.23
2022-08-17T10:44:40.051Z,26.23
2022-08-17T10:47:08.513Z,26.38
2022-08-17T10:49:47.826Z,26.48
2022-08-17T10:52:51.944Z,26.56
2022-08-17T10:55:21.476Z,26.76
2022-08-17T10:57:54.837Z,26.50
2022-08-17T11:01:11.449Z,26.10
2022-08-17T11:03:54.697Z,25.94
2022-08-17T11:06:36.705Z,25.87
2022-08-17T11:09:34.931Z,25.88
2022-08-17T11:12:16.898Z,25.80
2022-08-17T11:15:08.453Z,25.70
2022-08-17T11:18:20.481Z,25.77
2022-08-17T11:21:40.419Z,25.65
2022-08-17T11:24:19.230Z,25.61
2022-08-17T11:27:05.886Z,25.51
2022-08-17T11:29:40.528Z,25.49
2022-08-17T11:32:13.393Z,25.37
2022-08-17T11:34:44.622Z,25.45
2022-08-17T11:37:37.586Z,25.57
2022-08-17T11:40:34.029Z,25.71
2022-08-17T11:44:16.076Z,25.96
2022-08-17T11:47:23.472Z,26.11
2022-08-17T11:50:55.447Z,26.29
2022-08-17T11:57:02.274Z,26.63
2022-08-17T12:00:01.551Z,27.10
2022-08-17T12:02:48.287Z,27.40
2022-08-17T12:05:34.315Z,27.64
2022-08-17T12:08:21.301Z,27.33
2022-08-17T12:11:08.015Z,27.49
2022-08-17T12:13:46.072Z,27.68
2022-08-17T12:16:16.867Z,27.91
2022-08-17T12:18:52.597Z,27.93
2022-08-17T12:21:46.315Z,27.72
2022-08-17T12:24:32.364Z,27.62
2022-08-17T12:27:05.446Z,27.62
2022-08-17T12:29:38.338Z,27.57
2022-08-17T12:32:17.491Z,27.30
2022-08-17T12:34:49.199Z,27.35
2022-08-17T12:37:22.286Z,27.44
2022-08-17T12:39:58.618Z,27.15
2022-08-17T12:42:31.645Z,26.90
2022-08-17T12:45:00.477Z,26.89
2022-08-17T12:47:30.463Z,26.81
2022-08-17T12:50:28.458Z,27.00
2022-08-17T12:53:01.946Z,26.91
2022-08-17T12:55:37.381Z,26.87
2022-08-17T12:58:14.396Z,27.04
2022-08-17T13:00:51.114Z,26.94
2022-08-17T13:03:23.926Z,26.79
2022-08-17T13:06:01.729Z,27.00
2022-08-17T13:08:36.118Z,26.77
2022-08-17T13:11:09.413Z,26.95
2022-08-17T13:13:43.448Z,27.00
2022-08-17T13:16:20.304Z,27.08
2022-08-17T13:18:51.407Z,27.30
2022-08-17T13:21:30.386Z,27.30
2022-08-17T13:24:02.611Z,27.47
2022-08-17T13:26:35.050Z,27.59
2022-08-17T13:29:08.814Z,27.40
2022-08-17T13:31:51.956Z,27.53
2022-08-17T13:34:38.117Z,27.63
2022-08-17T13:37:30.373Z,27.31
2022-08-17T13:40:05.060Z,27.51
2022-08-17T13:42:50.444Z,27.41
2022-08-17T13:45:54.619Z,27.41
2022-08-17T13:48:28.212Z,27.27
2022-08-17T13:51:29.172Z,27.31
2022-08-17T13:54:03.521Z,27.29
2022-08-17T13:56:40.487Z,27.19
2022-08-17T13:59:13.005Z,27.13
2022-08-17T14:01:51.068Z,27.33
2022-08-17T14:04:31.732Z,27.33
2022-08-17T14:07:05.043Z,27.43
2022-08-17T14:09:37.580Z,27.29
2022-08-17T14:12:11.578Z,27.41
2022-08-17T14:14:40.814Z,27.51
2022-08-17T14:17:11.003Z,27.64
2022-08-17T14:19:40.251Z,27.77
2022-08-17T14:22:13.799Z,27.65
2022-08-17T14:24:45.058Z,27.89
2022-08-17T14:27:13.821Z,28.02
2022-08-17T14:29:42.553Z,27.87
2022-08-17T14:32:19.428Z,27.97
2022-08-17T14:34:49.650Z,28.31
2022-08-17T14:37:18.542Z,28.20
2022-08-17T14:39:47.342Z,28.17
2022-08-17T14:42:18.528Z,28.33
2022-08-17T14:44:47.063Z,28.15
2022-08-17T14:47:16.980Z,28.25
2022-08-17T14:49:48.358Z,27.91
2022-08-17T14:52:21.797Z,28.01
2022-08-17T14:54:51.339Z,27.95
2022-08-17T14:57:32.921Z,27.98
2022-08-17T15:00:04.727Z,28.15
2022-08-17T15:02:47.139Z,27.97
2022-08-17T15:05:18.188Z,27.83
2022-08-17T15:07:46.832Z,27.85
2022-08-17T15:10:16.797Z,28.04
2022-08-17T15:12:45.534Z,28.04
2022-08-17T15:15:17.328Z,27.93
2022-08-17T15:17:47.435Z,28.10
2022-08-17T15:20:18.954Z,28.09
2022-08-17T15:22:50.554Z,27.82
2022-08-17T15:25:22.169Z,27.95
2022-08-17T15:27:51.183Z,27.89
2022-08-17T15:30:20.035Z,27.75
2022-08-17T15:32:55.087Z,27.82
2022-08-17T15:35:28.593Z,27.83
2022-08-17T15:38:07.886Z,28.28
2022-08-17T15:40:43.185Z,28.37
2022-08-17T15:43:16.161Z,28.60
2022-08-17T15:45:58.650Z,28.17
2022-08-17T15:48:41.923Z,28.01
2022-08-17T15:51:14.274Z,28.27
2022-08-17T15:53:46.447Z,28.07
2022-08-17T15:56:16.157Z,28.36
2022-08-17T15:58:46.764Z,28.10
2022-08-17T16:01:27.848Z,28.32
2022-08-17T16:04:27.000Z,28.24
2022-08-17T16:06:56.521Z,28.05
2022-08-17T16:09:24.951Z,28.06
2022-08-17T16:11:55.176Z,27.80
2022-08-17T16:14:24.493Z,28.01
2022-08-17T16:16:59.349Z,28.02
2022-08-17T16:19:29.139Z,27.99
2022-08-17T16:21:57.659Z,28.32
2022-08-17T16:24:26.103Z,28.22
2022-08-17T16:26:55.377Z,28.07
2022-08-17T16:29:24.498Z,28.09
2022-08-17T16:31:53.452Z,28.24
2022-08-17T16:34:22.060Z,28.25
2022-08-17T16:36:55.365Z,28.08
2022-08-17T16:39:27.258Z,28.06
2022-08-17T16:41:56.437Z,27.98
2022-08-17T16:44:26.025Z,28.11
2022-08-17T16:46:54.809Z,27.95
2022-08-17T16:49:35.969Z,27.89
2022-08-17T16:52:11.263Z,27.84
2022-08-17T16:54:43.608Z,27.83
2022-08-17T16:57:13.323Z,27.84
2022-08-17T16:59:47.460Z,27.66
2022-08-17T17:02:25.221Z,27.79
2022-08-17T17:04:59.399Z,27.65
2022-08-17T17:07:56.960Z,27.68
2022-08-17T17:10:30.205Z,27.65
2022-08-17T17:13:02.209Z,27.73
2022-08-17T17:15:55.751Z,27.73
2022-08-17T17:18:37.381Z,27.64
2022-08-17T17:21:10.636Z,27.73
2022-08-17T17:23:54.811Z,27.81
2022-08-17T17:26:59.066Z,27.86
2022-08-17T17:29:47.456Z,27.74
2022-08-17T17:32:23.093Z,27.75
2022-08-17T17:34:56.282Z,27.67
2022-08-17T17:37:33.281Z,27.78
2022-08-17T17:40:09.439Z,27.68
2022-08-17T17:42:43.319Z,27.67
2022-08-17T17:45:20.089Z,27.64
2022-08-17T17:47:49.038Z,27.49
2022-08-17T17:50:20.685Z,27.34
2022-08-17T17:53:03.353Z,27.46
2022-08-17T17:55:44.162Z,27.36
2022-08-17T17:58:29.422Z,27.43
2022-08-17T18:01:18.962Z,27.35
2022-08-17T18:04:05.424Z,27.29
2022-08-17T18:07:06.155Z,27.31
2022-08-17T18:10:05.449Z,27.28
2022-08-17T18:12:57.825Z,27.26
2022-08-17T18:15:31.430Z,27.12
2022-08-17T18:18:31.790Z,27.04
2022-08-17T18:21:06.521Z,27.08
2022-08-17T18:23:35.427Z,27.02
2022-08-17T18:26:03.940Z,26.94
2022-08-17T18:28:38.440Z,26.92
2022-08-17T18:31:19.246Z,26.88
2022-08-17T18:33:51.380Z,26.78
2022-08-17T18:36:30.231Z,26.77
2022-08-17T18:39:16.567Z,26.68
2022-08-17T18:41:47.676Z,26.75
2022-08-17T18:44:29.017Z,26.69
2022-08-17T18:47:14.916Z,26.68
2022-08-17T18:49:47.251Z,26.63
2022-08-17T18:52:19.629Z,26.62
2022-08-17T18:55:09.749Z,26.58
2022-08-17T18:57:42.534Z,26.55
2022-08-17T19:00:37.196Z,26.50
2022-08-17T19:03:24.564Z,26.46
2022-08-17T19:05:56.449Z,26.44
2022-08-17T19:08:36.603Z,26.41
2022-08-17T19:11:10.339Z,26.35
2022-08-17T19:13:44.418Z,26.32
2022-08-17T19:16:20.188Z,26.31
2022-08-17T19:18:58.249Z,26.26
2022-08-17T19:21:34.313Z,26.25
2022-08-17T19:24:11.208Z,26.20
2022-08-17T19:26:53.374Z,26.15
2022-08-17T19:29:34.227Z,26.14
2022-08-17T19:32:05.417Z,26.10
2022-08-17T19:34:38.038Z,26.06
2022-08-17T19:37:13.423Z,26.06
2022-08-17T19:39:52.403Z,26.02
2022-08-17T19:42:41.251Z,25.99
2022-08-17T19:45:17.832Z,25.97
2022-08-17T19:47:55.592Z,25.94
2022-08-17T19:50:39.115Z,25.92
2022-08-17T19:53:21.044Z,25.90
2022-08-17T19:56:02.518Z,25.87
2022-08-17T19:58:49.069Z,25.86
2022-08-17T20:01:34.908Z,25.85
2022-08-17T20:04:13.711Z,25.81
2022-08-17T20:06:46.896Z,25.80
2022-08-17T20:09:24.218Z,25.79
2022-08-17T20:12:08.564Z,25.74
2022-08-17T20:14:53.740Z,25.72
2022-08-17T20:17:28.496Z,25.71
2022-08-17T20:20:07.650Z,25.66
2022-08-17T20:22:55.899Z,25.64
2022-08-17T20:25:32.631Z,25.60
2022-08-17T20:28:12.620Z,25.57
2022-08-17T20:30:43.979Z,25.52
2022-08-17T20:33:27.132Z,25.45
2022-08-17T20:36:15.731Z,25.41
2022-08-17T20:38:47.616Z,25.36
2022-08-17T20:41:20.794Z,25.34
2022-08-17T20:44:06.797Z,25.30
2022-08-17T20:46:58.303Z,25.25
2022-08-17T20:49:34.951Z,25.21
2022-08-17T20:52:09.138Z,25.18
2022-08-17T20:54:51.340Z,25.14
2022-08-17T20:57:48.642Z,25.10
2022-08-17T21:00:45.228Z,25.10
2022-08-17T21:03:52.180Z,25.09
2022-08-17T21:06:24.510Z,25.07
2022-08-17T21:08:59.068Z,25.08
2022-08-17T21:12:05.238Z,25.05
2022-08-17T21:14:59.710Z,25.04
2022-08-17T21:17:59.231Z,25.05
2022-08-17T21:20:40.772Z,24.99
2022-08-17T21:23:45.006Z,24.93
2022-08-17T21:26:29.670Z,24.89
2022-08-17T21:29:31.309Z,24.91
2022-08-17T21:32:24.214Z,24.84
2022-08-17T21:35:30.423Z,24.79
2022-08-17T21:38:05.175Z,24.71
2022-08-17T21:40:35.102Z,24.65
2022-08-17T21:43:24.074Z,24.63
2022-08-17T21:46:01.901Z,24.57
2022-08-17T21:48:33.459Z,24.59
2022-08-17T21:51:13.975Z,24.55
2022-08-17T21:53:56.787Z,24.54
2022-08-17T21:56:30.348Z,24.47
2022-08-17T21:59:04.128Z,24.50
2022-08-17T22:01:36.274Z,24.49
2022-08-17T22:04:20.171Z,24.52
2022-08-17T22:06:52.592Z,24.46
2022-08-17T22:09:29.012Z,24.40
2022-08-17T22:12:09.090Z,24.38
2022-08-17T22:14:52.979Z,24.39
2022-08-17T22:17:25.384Z,24.33
2022-08-17T22:19:59.062Z,24.27
2022-08-17T22:22:55.853Z,24.27
2022-08-17T22:25:27.279Z,24.16
2022-08-17T22:27:59.792Z,24.04
2022-08-17T22:30:34.715Z,24.02
2022-08-17T22:33:31.950Z,24.04
2022-08-17T22:36:22.120Z,23.95
2022-08-17T22:38:51.565Z,23.95
2022-08-17T22:41:39.174Z,23.90
2022-08-17T22:44:24.502Z,23.88
2022-08-17T22:47:06.715Z,23.79
2022-08-17T22:49:53.334Z,23.75
2022-08-17T22:52:35.426Z,23.80
2022-08-17T22:55:33.051Z,23.78
2022-08-17T22:58:19.812Z,23.73
2022-08-17T23:00:51.100Z,23.73
2022-08-17T23:03:23.242Z,23.68
2022-08-17T23:06:08.201Z,23.66
2022-08-17T23:08:45.374Z,23.66
2022-08-17T23:11:15.047Z,23.61
2022-08-17T23:13:44.391Z,23.63
2022-08-17T23:16:14.908Z,23.57
2022-08-17T23:18:47.973Z,23.51
2022-08-17T23:21:16.509Z,23.39
2022-08-17T23:23:56.068Z,23.35
2022-08-17T23:26:26.959Z,23.33
2022-08-17T23:28:55.413Z,23.23
2022-08-17T23:31:25.934Z,23.26
2022-08-17T23:33:55.882Z,23.27
2022-08-17T23:36:24.359Z,23.28
2022-08-17T23:38:54.551Z,23.30
2022-08-17T23:41:26.847Z,23.26
2022-08-17T23:43:55.417Z,23.21
2022-08-17T23:46:25.101Z,23.28
2022-08-17T23:48:54.899Z,23.25
2022-08-17T23:51:28.907Z,23.25
2022-08-17T23:54:07.996Z,23.19
2022-08-17T23:56:41.977Z,23.15
2022-08-17T23:59:10.338Z,23.12
